createdAt,value
2023-01-31T00:01:29.160Z,96072.94
2023-01-31T00:03:58.547Z,96076.06
2023-01-31T00:06:28.767Z,96079.75
2023-01-31T00:08:57.271Z,96090.88
2023-01-31T00:11:28.412Z,96087.81
2023-01-31T00:13:56.754Z,96078.59
2023-01-31T00:16:24.682Z,96077.16
2023-01-31T00:18:52.678Z,96074.06
2023-01-31T00:21:23.803Z,96075.31
2023-01-31T00:23:54.602Z,96079.41
2023-01-31T00:26:24.239Z,96071.72
2023-01-31T00:28:53.580Z,96073.03
2023-01-31T00:31:23.238Z,96078.59
2023-01-31T00:33:52.478Z,96060.88
2023-01-31T00:36:21.807Z,96069.72
2023-01-31T00:38:50.308Z,96078.81
2023-01-31T00:41:21.263Z,96080.88
2023-01-31T00:43:48.986Z,96084.38
2023-01-31T00:46:17.170Z,96079.47
2023-01-31T00:48:44.839Z,96082.75
2023-01-31T00:51:12.589Z,96083.78
2023-01-31T00:53:40.465Z,96087.94
2023-01-31T00:56:10.362Z,96095.09
2023-01-31T00:58:40.499Z,96085.63
2023-01-31T01:01:09.170Z,96076.19
2023-01-31T01:03:38.305Z,96069.06
2023-01-31T01:06:07.280Z,96069.19
2023-01-31T01:08:36.386Z,96072.69
2023-01-31T01:11:08.809Z,96082.78
2023-01-31T01:13:37.241Z,96072.69
2023-01-31T01:16:07.529Z,96079.50
2023-01-31T01:18:36.277Z,96067.94
2023-01-31T01:21:11.766Z,96073.50
2023-01-31T01:23:39.543Z,96081.16
2023-01-31T01:26:13.889Z,96082.66
2023-01-31T01:28:41.590Z,96079.97
2023-01-31T01:31:16.381Z,96083.69
2023-01-31T01:33:44.967Z,96085.78
2023-01-31T01:36:17.261Z,96095.22
2023-01-31T01:38:45.590Z,96095.06
2023-01-31T01:41:14.365Z,96096.88
2023-01-31T01:43:46.757Z,96101.19
2023-01-31T01:46:18.747Z,96097.44
2023-01-31T01:48:49.505Z,96101.41
2023-01-31T01:51:19.406Z,96105.94
2023-01-31T01:53:50.481Z,96106.16
2023-01-31T01:56:24.808Z,96101.41
2023-01-31T01:58:58.476Z,96105.56
2023-01-31T02:01:31.199Z,96098.94
2023-01-31T02:03:59.277Z,96105.97
2023-01-31T02:06:26.965Z,96110.31
2023-01-31T02:08:55.952Z,96122.03
2023-01-31T02:11:26.347Z,96123.91
2023-01-31T02:13:59.881Z,96122.88
2023-01-31T02:16:29.331Z,96109.88
2023-01-31T02:18:58.067Z,96114.22
2023-01-31T02:21:55.067Z,96118.59
2023-01-31T02:24:55.882Z,96127.31
2023-01-31T02:27:46.368Z,96128.94
2023-01-31T02:30:43.612Z,96131.41
2023-01-31T02:33:22.850Z,96138.00
2023-01-31T02:36:05.434Z,96143.34
2023-01-31T02:38:45.985Z,96135.53
2023-01-31T02:41:20.361Z,96143.56
2023-01-31T02:44:12.362Z,96130.41
2023-01-31T02:46:52.733Z,96127.72
2023-01-31T02:49:35.462Z,96124.84
2023-01-31T02:52:18.194Z,96138.00
2023-01-31T02:55:20.369Z,96141.75
2023-01-31T02:57:52.236Z,96135.41
2023-01-31T03:00:21.905Z,96146.72
2023-01-31T03:02:49.757Z,96139.06
2023-01-31T03:05:20.491Z,96146.72
2023-01-31T03:07:51.046Z,96134.53
2023-01-31T03:10:43.881Z,96145.03
2023-01-31T03:13:34.862Z,96153.50
2023-01-31T03:16:31.342Z,96152.88
2023-01-31T03:19:13.519Z,96155.97
2023-01-31T03:21:47.219Z,96147.72
2023-01-31T03:24:18.213Z,96146.28
2023-01-31T03:26:47.041Z,96145.69
2023-01-31T03:29:17.598Z,96149.56
2023-01-31T03:31:49.955Z,96158.09
2023-01-31T03:34:18.613Z,96169.84
2023-01-31T03:36:55.455Z,96178.09
2023-01-31T03:39:33.167Z,96171.72
2023-01-31T03:42:07.482Z,96181.59
2023-01-31T03:44:43.068Z,96184.47
2023-01-31T03:47:16.812Z,96176.28
2023-01-31T03:49:46.360Z,96176.53
2023-01-31T03:52:23.212Z,96175.53
2023-01-31T03:54:56.865Z,96178.88
2023-01-31T03:57:29.995Z,96186.69
2023-01-31T04:00:01.499Z,96177.03
2023-01-31T04:02:34.289Z,96182.19
2023-01-31T04:05:08.040Z,96175.88
2023-01-31T04:07:38.177Z,96185.97
2023-01-31T04:10:12.128Z,96185.78
2023-01-31T04:12:39.929Z,96183.34
2023-01-31T04:15:08.956Z,96198.34
2023-01-31T04:17:36.883Z,96197.72
2023-01-31T04:20:05.909Z,96204.88
2023-01-31T04:22:34.283Z,96210.47
2023-01-31T04:25:03.310Z,96206.53
2023-01-31T04:27:31.021Z,96211.25
2023-01-31T04:29:58.699Z,96215.56
2023-01-31T04:32:26.387Z,96215.16
2023-01-31T04:34:54.093Z,96207.72
2023-01-31T04:37:21.897Z,96208.38
2023-01-31T04:39:49.534Z,96220.69
2023-01-31T04:42:18.833Z,96226.66
2023-01-31T04:44:46.486Z,96226.06
2023-01-31T04:47:14.165Z,96228.13
2023-01-31T04:49:41.858Z,96224.78
2023-01-31T04:52:10.521Z,96228.69
2023-01-31T04:54:38.256Z,96226.44
2023-01-31T04:57:05.932Z,96233.22
2023-01-31T04:59:37.024Z,96241.22
2023-01-31T05:02:04.690Z,96242.47
2023-01-31T05:04:32.745Z,96247.19
2023-01-31T05:07:00.530Z,96244.72
2023-01-31T05:09:28.201Z,96249.47
2023-01-31T05:11:55.874Z,96264.09
2023-01-31T05:14:23.581Z,96252.59
2023-01-31T05:16:52.589Z,96242.09
2023-01-31T05:19:20.227Z,96247.03
2023-01-31T05:21:58.287Z,96257.31
2023-01-31T05:24:27.871Z,96267.59
2023-01-31T05:26:58.648Z,96271.50
2023-01-31T05:29:27.039Z,96264.53
2023-01-31T05:31:57.958Z,96268.03
2023-01-31T05:34:26.611Z,96264.72
2023-01-31T05:36:54.260Z,96274.59
2023-01-31T05:39:22.366Z,96271.53
2023-01-31T05:41:50.091Z,96267.66
2023-01-31T05:44:17.797Z,96267.66
2023-01-31T05:46:46.160Z,96272.56
2023-01-31T05:49:15.627Z,96276.47
2023-01-31T05:51:43.585Z,96275.22
2023-01-31T05:54:12.128Z,96283.25
2023-01-31T05:56:40.114Z,96280.81
2023-01-31T05:59:07.796Z,96283.91
2023-01-31T06:01:35.463Z,96293.75
2023-01-31T06:04:03.170Z,96284.72
2023-01-31T06:06:32.204Z,96283.06
2023-01-31T06:09:00.252Z,96273.78
2023-01-31T06:11:27.965Z,96280.78
2023-01-31T06:13:57.726Z,96281.19
2023-01-31T06:16:26.395Z,96270.28
2023-01-31T06:18:55.628Z,96269.88
2023-01-31T06:21:23.263Z,96269.06
2023-01-31T06:23:52.308Z,96265.56
2023-01-31T06:26:20.081Z,96270.69
2023-01-31T06:28:47.748Z,96262.69
2023-01-31T06:31:15.769Z,96262.25
2023-01-31T06:33:47.278Z,96271.31
2023-01-31T06:36:18.689Z,96273.56
2023-01-31T06:38:51.975Z,96272.13
2023-01-31T06:41:20.036Z,96277.47
2023-01-31T06:43:47.698Z,96284.88
2023-01-31T06:46:15.499Z,96286.13
2023-01-31T06:48:43.748Z,96294.16
2023-01-31T06:51:11.595Z,96286.31
2023-01-31T06:53:39.264Z,96285.50
2023-01-31T06:56:09.360Z,96282.84
2023-01-31T06:58:37.087Z,96285.50
2023-01-31T07:01:08.681Z,96293.94
2023-01-31T07:03:36.443Z,96293.94
2023-01-31T07:06:04.918Z,96313.91
2023-01-31T07:08:35.364Z,96312.88
2023-01-31T07:11:04.018Z,96320.28
2023-01-31T07:13:33.336Z,96326.88
2023-01-31T07:16:01.101Z,96321.09
2023-01-31T07:18:28.808Z,96305.06
2023-01-31T07:20:56.612Z,96311.66
2023-01-31T07:23:24.241Z,96315.16
2023-01-31T07:25:51.948Z,96311.25
2023-01-31T07:28:19.649Z,96312.69
2023-01-31T07:30:48.761Z,96309.16
2023-01-31T07:33:17.759Z,96312.88
2023-01-31T07:35:45.531Z,96309.16
2023-01-31T07:38:13.299Z,96305.22
2023-01-31T07:40:41.109Z,96307.88
2023-01-31T07:43:08.926Z,96301.47
2023-01-31T07:45:36.951Z,96303.31
2023-01-31T07:48:07.468Z,96299.00
2023-01-31T07:50:35.166Z,96300.44
2023-01-31T07:53:02.863Z,96295.09
2023-01-31T07:55:30.790Z,96301.50
2023-01-31T07:57:58.480Z,96307.47
2023-01-31T08:00:44.237Z,96307.47
2023-01-31T08:03:34.418Z,96306.44
2023-01-31T08:06:04.755Z,96308.72
2023-01-31T08:08:32.776Z,96307.88
2023-01-31T08:11:00.609Z,96306.00
2023-01-31T08:13:32.928Z,96305.16
2023-01-31T08:16:00.703Z,96304.53
2023-01-31T08:18:29.792Z,96296.31
2023-01-31T08:20:58.017Z,96300.44
2023-01-31T08:23:25.733Z,96298.16
2023-01-31T08:25:53.480Z,96298.94
2023-01-31T08:28:21.216Z,96316.03
2023-01-31T08:31:02.746Z,96306.97
2023-01-31T08:33:37.978Z,96314.31
2023-01-31T08:36:13.460Z,96311.03
2023-01-31T08:38:41.156Z,96308.94
2023-01-31T08:41:09.145Z,96308.09
2023-01-31T08:43:53.809Z,96313.00
2023-01-31T08:46:23.862Z,96319.59
2023-01-31T08:48:52.989Z,96312.16
2023-01-31T08:51:20.684Z,96313.19
2023-01-31T08:53:48.532Z,96318.25
2023-01-31T08:56:16.910Z,96307.72
2023-01-31T08:58:45.631Z,96310.34
2023-01-31T09:01:15.127Z,96308.66
2023-01-31T09:03:45.200Z,96300.94
2023-01-31T09:06:17.260Z,96305.63
2023-01-31T09:08:45.022Z,96303.28
2023-01-31T09:11:17.113Z,96293.69
2023-01-31T09:13:44.985Z,96297.16
2023-01-31T09:16:14.952Z,96299.81
2023-01-31T09:18:43.560Z,96292.06
2023-01-31T09:21:15.185Z,96297.81
2023-01-31T09:23:43.491Z,96291.19
2023-01-31T09:26:12.292Z,96295.44
2023-01-31T09:28:42.688Z,96287.31
2023-01-31T09:31:12.430Z,96293.91
2023-01-31T09:33:40.165Z,96296.28
2023-01-31T09:36:10.507Z,96301.16
2023-01-31T09:38:40.202Z,96300.53
2023-01-31T09:41:20.646Z,96321.69
2023-01-31T09:43:53.197Z,96309.84
2023-01-31T09:46:25.188Z,96311.66
2023-01-31T09:48:56.410Z,96317.75
2023-01-31T09:51:27.259Z,96321.88
2023-01-31T09:53:57.679Z,96314.97
2023-01-31T09:56:33.224Z,96313.41
2023-01-31T09:59:05.594Z,96320.53
2023-01-31T10:01:43.767Z,96318.97
2023-01-31T10:04:25.346Z,96322.34
2023-01-31T10:06:59.889Z,96316.56
2023-01-31T10:09:34.819Z,96322.09
2023-01-31T10:12:11.108Z,96311.59
2023-01-31T10:14:46.930Z,96315.94
2023-01-31T10:17:18.961Z,96308.56
2023-01-31T10:19:50.702Z,96294.06
2023-01-31T10:22:24.123Z,96295.63
2023-01-31T10:24:59.342Z,96291.81
2023-01-31T10:27:41.619Z,96280.94
2023-01-31T10:30:19.063Z,96269.47
2023-01-31T10:32:52.331Z,96262.69
2023-01-31T10:35:24.544Z,96263.25
2023-01-31T10:37:57.084Z,96261.44
2023-01-31T10:40:33.647Z,96267.50
2023-01-31T10:43:10.937Z,96267.66
2023-01-31T10:45:38.781Z,96264.78
2023-01-31T10:48:16.665Z,96273.06
2023-01-31T10:50:57.551Z,96269.78
2023-01-31T10:53:46.206Z,96258.94
2023-01-31T10:56:25.498Z,96273.59
2023-01-31T10:58:53.416Z,96261.13
2023-01-31T11:01:21.282Z,96252.56
2023-01-31T11:03:51.595Z,96256.97
2023-01-31T11:06:21.230Z,96250.13
2023-01-31T11:08:51.812Z,96252.00
2023-01-31T11:11:22.685Z,96248.19
2023-01-31T11:14:01.139Z,96228.91
2023-01-31T11:16:31.990Z,96231.13
2023-01-31T11:19:02.590Z,96227.09
2023-01-31T11:21:32.534Z,96226.00
2023-01-31T11:24:04.899Z,96219.38
2023-01-31T11:26:37.706Z,96204.53
2023-01-31T11:29:11.767Z,96202.94
2023-01-31T11:31:45.637Z,96203.56
2023-01-31T11:34:22.164Z,96194.28
2023-01-31T11:36:49.931Z,96187.59
2023-01-31T11:39:31.388Z,96185.25
2023-01-31T11:42:07.049Z,96175.09
2023-01-31T11:44:34.896Z,96171.22
2023-01-31T11:47:05.909Z,96159.16
2023-01-31T11:49:36.492Z,96170.41
2023-01-31T11:52:14.548Z,96164.28
2023-01-31T11:54:47.555Z,96159.66
2023-01-31T11:57:18.129Z,96155.03
2023-01-31T11:59:45.925Z,96149.00
2023-01-31T12:02:27.372Z,96139.41
2023-01-31T12:04:55.882Z,96125.69
2023-01-31T12:07:25.711Z,96131.69
2023-01-31T12:09:53.668Z,96130.22
2023-01-31T12:12:31.280Z,96124.28
2023-01-31T12:15:03.454Z,96123.00
2023-01-31T12:17:34.873Z,96106.47
2023-01-31T12:20:28.625Z,96106.38
2023-01-31T12:23:08.278Z,96101.00
2023-01-31T12:25:49.635Z,96098.16
2023-01-31T12:28:32.297Z,96113.31
2023-01-31T12:31:19.935Z,96110.69
2023-01-31T12:34:02.423Z,96120.28
2023-01-31T12:36:46.510Z,96116.13
2023-01-31T12:39:25.564Z,96102.59
2023-01-31T12:42:05.948Z,96105.59
2023-01-31T12:44:44.995Z,96107.16
2023-01-31T12:47:39.233Z,96089.94
2023-01-31T12:50:20.576Z,96099.72
2023-01-31T12:53:04.374Z,96091.66
2023-01-31T12:55:40.734Z,96093.38
2023-01-31T12:58:29.784Z,96083.25
2023-01-31T13:01:03.160Z,96085.13
2023-01-31T13:03:49.569Z,96088.66
2023-01-31T13:06:24.143Z,96091.13
2023-01-31T13:09:07.801Z,96092.03
2023-01-31T13:11:40.827Z,96081.66
2023-01-31T13:14:15.491Z,96075.81
2023-01-31T13:16:47.319Z,96062.56
2023-01-31T13:19:20.842Z,96054.34
2023-01-31T13:21:52.903Z,96052.41
2023-01-31T13:24:24.714Z,96056.84
2023-01-31T13:26:57.711Z,96052.75
2023-01-31T13:29:30.847Z,96049.91
2023-01-31T13:32:03.399Z,96053.16
2023-01-31T13:34:38.713Z,96041.91
2023-01-31T13:37:12.170Z,96031.09
2023-01-31T13:39:43.055Z,96024.47
2023-01-31T13:42:14.628Z,96018.66
2023-01-31T13:44:42.612Z,96013.19
2023-01-31T13:47:18.715Z,96010.63
2023-01-31T13:49:51.667Z,96010.50
2023-01-31T13:52:25.371Z,96004.75
2023-01-31T13:54:57.543Z,96012.13
2023-01-31T13:57:28.533Z,96015.88
2023-01-31T14:00:03.283Z,96017.84
2023-01-31T14:02:32.525Z,96011.88
2023-01-31T14:05:06.780Z,96025.22
2023-01-31T14:07:34.551Z,96019.38
2023-01-31T14:10:37.683Z,96021.47
2023-01-31T14:13:26.871Z,96031.97
2023-01-31T14:15:56.262Z,96030.94
2023-01-31T14:18:52.391Z,96017.16
2023-01-31T14:21:49.391Z,96024.38
2023-01-31T14:24:42.061Z,96028.34
2023-01-31T14:27:19.263Z,96023.06
2023-01-31T14:29:49.162Z,96022.97
2023-01-31T14:32:19.563Z,96014.78
2023-01-31T14:34:51.558Z,96003.13
2023-01-31T14:37:29.597Z,95989.13
2023-01-31T14:40:16.258Z,95999.53
2023-01-31T14:43:15.763Z,95995.53
2023-01-31T14:46:10.268Z,96005.13
2023-01-31T14:49:06.018Z,96010.81
2023-01-31T14:51:47.973Z,95988.16
2023-01-31T14:54:47.581Z,95983.63
2023-01-31T14:57:19.159Z,95995.75
2023-01-31T14:59:55.469Z,95981.06
2023-01-31T15:02:50.121Z,95975.34
2023-01-31T15:05:20.636Z,95983.03
2023-01-31T15:08:06.515Z,95978.59
2023-01-31T15:10:58.079Z,95983.50
2023-01-31T15:13:42.618Z,95990.16
2023-01-31T15:16:18.699Z,95996.22
2023-01-31T15:18:49.961Z,95990.16
2023-01-31T15:21:24.711Z,95988.53
2023-01-31T15:23:55.374Z,96000.09
2023-01-31T15:26:26.958Z,95996.81
2023-01-31T15:28:55.425Z,95992.84
2023-01-31T15:31:29.283Z,95994.94
2023-01-31T15:34:02.651Z,95992.25
2023-01-31T15:36:34.756Z,96000.41
2023-01-31T15:39:16.366Z,96000.63
2023-01-31T15:41:45.155Z,95999.47
2023-01-31T15:44:17.430Z,96001.91
2023-01-31T15:46:46.449Z,95982.66
2023-01-31T15:49:39.179Z,95979.06
2023-01-31T15:52:16.263Z,95980.94
2023-01-31T15:54:56.411Z,95981.16
2023-01-31T15:57:27.462Z,95978.84
2023-01-31T15:59:57.006Z,95968.69
2023-01-31T16:02:28.952Z,95964.94
2023-01-31T16:04:57.821Z,95961.91
2023-01-31T16:07:29.242Z,95968.31
2023-01-31T16:10:02.966Z,95978.09
2023-01-31T16:12:33.074Z,95976.00
2023-01-31T16:15:05.499Z,95983.13
2023-01-31T16:17:33.999Z,95976.47
2023-01-31T16:20:01.764Z,95979.88
2023-01-31T16:22:32.035Z,95985.13
2023-01-31T16:25:02.919Z,95993.84
2023-01-31T16:27:34.067Z,95997.94
2023-01-31T16:30:02.107Z,95991.91
2023-01-31T16:32:32.091Z,95991.66
2023-01-31T16:35:02.175Z,96016.50
2023-01-31T16:37:33.361Z,95994.44
2023-01-31T16:40:07.388Z,95981.16
2023-01-31T16:42:38.677Z,95964.00
2023-01-31T16:45:29.092Z,95967.59
2023-01-31T16:48:10.026Z,95970.06
2023-01-31T16:50:43.301Z,95959.00
2023-01-31T16:53:24.458Z,95990.03
2023-01-31T16:56:19.677Z,95992.81
2023-01-31T16:58:50.828Z,96005.91
2023-01-31T17:01:21.626Z,96008.47
2023-01-31T17:04:15.363Z,96024.19
2023-01-31T17:06:43.754Z,96022.47
2023-01-31T17:09:17.151Z,96021.41
2023-01-31T17:11:47.058Z,96004.50
2023-01-31T17:14:14.919Z,96016.28
2023-01-31T17:16:42.668Z,96016.41
2023-01-31T17:19:11.467Z,96001.72
2023-01-31T17:21:41.682Z,96005.56
2023-01-31T17:24:14.423Z,96011.88
2023-01-31T17:26:42.556Z,95996.94
2023-01-31T17:29:12.096Z,96007.78
2023-01-31T17:31:40.979Z,96011.06
2023-01-31T17:34:13.706Z,96010.69
2023-01-31T17:36:41.574Z,96013.16
2023-01-31T17:39:09.318Z,96013.16
2023-01-31T17:41:39.173Z,96009.78
2023-01-31T17:44:07.196Z,96008.72
2023-01-31T17:46:37.102Z,96020.06
2023-01-31T17:49:04.907Z,96007.56
2023-01-31T17:51:32.721Z,96015.75
2023-01-31T17:54:00.522Z,96007.00
2023-01-31T17:56:28.359Z,96014.91
2023-01-31T17:58:56.076Z,96020.06
2023-01-31T18:01:23.846Z,96027.31
2023-01-31T18:03:52.972Z,96026.13
2023-01-31T18:06:20.686Z,96024.03
2023-01-31T18:08:48.677Z,96022.03
2023-01-31T18:11:17.757Z,96030.66
2023-01-31T18:13:45.744Z,96042.47
2023-01-31T18:16:18.371Z,96055.66
2023-01-31T18:18:46.178Z,96038.72
2023-01-31T18:21:17.417Z,96035.59
2023-01-31T18:23:45.237Z,96032.81
2023-01-31T18:26:13.321Z,96049.38
2023-01-31T18:28:41.125Z,96046.09
2023-01-31T18:31:13.778Z,96040.38
2023-01-31T18:33:43.593Z,96028.47
2023-01-31T18:36:14.338Z,96037.34
2023-01-31T18:38:44.631Z,96032.22
2023-01-31T18:41:15.299Z,96028.81
2023-01-31T18:43:43.870Z,96030.94
2023-01-31T18:46:12.450Z,96043.56
2023-01-31T18:48:41.986Z,96044.00
2023-01-31T18:51:13.322Z,96044.00
2023-01-31T18:53:44.955Z,96034.91
2023-01-31T18:56:14.669Z,96043.91
2023-01-31T18:58:44.524Z,96043.19
2023-01-31T19:01:14.088Z,96045.41
2023-01-31T19:03:42.793Z,96043.31
2023-01-31T19:06:12.443Z,96050.91
2023-01-31T19:08:40.498Z,96057.34
2023-01-31T19:11:11.600Z,96056.75
2023-01-31T19:13:39.522Z,96047.66
2023-01-31T19:16:09.390Z,96054.66
2023-01-31T19:18:37.734Z,96058.63
2023-01-31T19:21:15.559Z,96056.38
2023-01-31T19:23:43.511Z,96056.84
2023-01-31T19:26:13.599Z,96053.34
2023-01-31T19:28:41.492Z,96053.13
2023-01-31T19:31:11.456Z,96055.44
2023-01-31T19:33:40.036Z,96046.09
2023-01-31T19:36:11.959Z,96054.75
2023-01-31T19:38:40.105Z,96046.47
2023-01-31T19:41:09.038Z,96039.56
2023-01-31T19:43:38.250Z,96041.09
2023-01-31T19:46:06.802Z,96036.19
2023-01-31T19:48:34.914Z,96032.22
2023-01-31T19:51:07.894Z,96043.78
2023-01-31T19:53:35.984Z,96033.97
2023-01-31T19:56:03.970Z,96032.81
2023-01-31T19:58:32.142Z,96034.44
2023-01-31T20:01:03.042Z,96026.84
2023-01-31T20:03:31.167Z,96031.97
2023-01-31T20:06:02.440Z,96026.50
2023-01-31T20:08:30.971Z,96016.31
2023-01-31T20:10:59.360Z,96015.50
2023-01-31T20:13:27.254Z,96022.88
2023-01-31T20:15:59.321Z,96019.16
2023-01-31T20:18:29.150Z,96021.97
2023-01-31T20:20:56.899Z,96037.00
2023-01-31T20:23:24.883Z,96039.13
2023-01-31T20:25:53.666Z,96035.25
2023-01-31T20:28:22.157Z,96034.09
2023-01-31T20:30:50.062Z,96027.88
2023-01-31T20:33:18.545Z,96034.31
2023-01-31T20:35:48.379Z,96029.88
2023-01-31T20:38:18.232Z,96025.56
2023-01-31T20:40:51.304Z,96040.03
2023-01-31T20:43:19.424Z,96036.03
2023-01-31T20:45:47.444Z,96030.94
2023-01-31T20:48:15.393Z,96037.81
2023-01-31T20:50:43.161Z,96033.84
2023-01-31T20:53:18.001Z,96026.47
2023-01-31T20:55:47.190Z,96026.38
2023-01-31T20:58:15.017Z,96015.06
2023-01-31T21:00:42.752Z,96038.28
2023-01-31T21:03:10.523Z,96021.34
2023-01-31T21:05:39.015Z,96026.72
2023-01-31T21:08:07.307Z,96032.22
2023-01-31T21:10:36.472Z,96028.81
2023-01-31T21:13:04.215Z,96028.47
2023-01-31T21:15:32.869Z,96033.25
2023-01-31T21:18:00.628Z,96042.00
2023-01-31T21:20:28.418Z,96040.47
2023-01-31T21:22:56.156Z,96024.34
2023-01-31T21:25:23.839Z,96040.94
2023-01-31T21:27:52.934Z,96040.22
2023-01-31T21:30:21.180Z,96039.03
2023-01-31T21:32:49.074Z,96041.84
2023-01-31T21:35:17.056Z,96025.75
2023-01-31T21:37:44.844Z,96023.50
2023-01-31T21:40:13.724Z,96020.84
2023-01-31T21:42:42.981Z,96028.28
2023-01-31T21:45:12.620Z,96020.69
2023-01-31T21:48:00.712Z,96026.06
2023-01-31T21:50:28.558Z,96023.50
2023-01-31T21:52:56.349Z,96003.53
2023-01-31T21:55:24.098Z,96006.13
2023-01-31T21:57:51.838Z,96002.84
2023-01-31T22:00:22.116Z,95992.34
2023-01-31T22:02:52.973Z,96004.28
2023-01-31T22:05:20.724Z,96007.19
2023-01-31T22:07:48.509Z,96004.63
2023-01-31T22:10:16.379Z,96002.75
2023-01-31T22:12:44.078Z,95995.91
2023-01-31T22:15:11.948Z,95986.66
2023-01-31T22:17:41.067Z,95974.84
2023-01-31T22:20:11.843Z,95958.41
2023-01-31T22:22:39.613Z,95962.13
2023-01-31T22:25:07.946Z,95969.69
2023-01-31T22:27:35.691Z,95967.81
2023-01-31T22:30:15.130Z,95955.81
2023-01-31T22:32:45.094Z,95948.56
2023-01-31T22:35:12.844Z,95946.13
2023-01-31T22:37:41.897Z,95948.81
2023-01-31T22:40:11.197Z,95950.31
2023-01-31T22:42:38.923Z,95954.41
2023-01-31T22:45:07.560Z,95956.41
2023-01-31T22:47:35.308Z,95952.31
2023-01-31T22:50:08.362Z,95960.94
2023-01-31T22:52:36.099Z,95946.63
2023-01-31T23:01:34.662Z,95963.03
2023-01-31T23:04:03.988Z,95948.47
2023-01-31T23:06:31.889Z,95978.69
2023-01-31T23:08:59.824Z,95968.31
2023-01-31T23:11:27.839Z,95971.38
2023-01-31T23:13:55.849Z,95991.56
2023-01-31T23:16:45.810Z,95974.16
2023-01-31T23:19:16.061Z,95976.50
2023-01-31T23:21:44.635Z,95981.88
2023-01-31T23:24:14.408Z,95974.41
2023-01-31T23:26:42.432Z,95983.03
2023-01-31T23:29:10.250Z,95980.13
2023-01-31T23:31:38.555Z,95976.75
2023-01-31T23:34:07.848Z,96002.19
2023-01-31T23:36:36.949Z,95992.50
2023-01-31T23:39:05.074Z,95986.06
2023-01-31T23:41:32.878Z,95987.56
2023-01-31T23:44:04.151Z,95987.56
2023-01-31T23:46:32.309Z,95982.22
2023-01-31T23:49:02.269Z,95984.88
2023-01-31T23:51:31.336Z,95980.25
2023-01-31T23:54:00.830Z,95969.38
2023-01-31T23:56:28.626Z,95962.13
2023-01-31T23:58:56.509Z,95952.56
